Terminal Aerodrome Forecast
Issued by NWS Cleveland, OH

Home | Current Version | Previous Version | Graphics & Text | Print | Product List | Glossary Off
Versions: 1 2 3 4 5 6 7 8 9 10 11 12 13 14 15 16 17 18 19 20 21 22 23 24 25

000
FTUS41 KCLE 242300
TAFTOL
TAF
KTOL 242334Z 2500/2524 29020G30KT 6SM -SHRA BR VCTS OVC004CB
      TEMPO 2500/2503 1 1/2SM -SHRA BR OVC008
     FM250300 27020G30KT 4SM -SHRA OVC007
     FM250600 26015G30KT P6SM -SHRA OVC010
     FM250700 25015G30KT 3SM -SHSN OVC012
     FM251000 25012G22KT P6SM -SHSN OVC015
     FM251400 26012G24KT P6SM -SHSN OVC024=

USA.gov is the U.S. government's official web portal to all federal, state and local government web resources and services.